Terminal Aerodrome Forecast
Issued by NWS

Home | Current Version | Previous Version | Text Only | Print | Product List | Glossary On
Versions: 1 2 3 4 5 6 7 8 9 10 11 12 13 14 15 16 17 18 19 20 21 22 23 24 25 26 27 28 29 30 31 32 33 34
000
FTUS43 KDMX 311630 AAB
TAFFOD
TAF AMD
KFOD 311630Z 3117/0112 36005KT P6SM OVC015
     FM311800 VRB05KT 4SM -SNRA BR OVC015
     FM312100 09006KT 2SM -SN BR OVC015
     FM312300 06010G16KT 1 1/2SM -SN OVC009
     FM010900 04015G22KT 1 1/2SM -SN BLSN OVC009=

USA.gov is the U.S. government's official web portal to all federal, state and local government web resources and services.